Latest Weather Observations for Spring Bay

IDT60801

Issued at 10:51 pm EDT Thursday 17 January 2019 (issued every 10 minutes, with the page automatically refreshed every 10 minutes)

About weather observations | Map of weather stations | Latest weather observations for TAS | Other Formats
Station Details ID: 092133 Name: SPRING BAY NTC AWS Lat: -42.55 Lon: 147.93 Height: 0.0 m
Data from the previous 72 hours. | See also: Recent months for locations in Tasmania
Date/Time
EDT
Temp
°C
App
Temp
°C
Dew
Point
°C
Rel
Hum
%
Delta-T
°C
Wind Press
QNH
hPa
Press
MSL
hPa
Rain since
9am
mm
Dir  Spd
km/h
Gust
km/h
Spd
kts
Gust
kts
17/10:30pm 19.7 - - - - - - - - - 1005.6 1005.6 -
17/10:00pm 20.0 - - - - - - - - - 1005.5 1005.5 -
17/09:30pm 20.3 - - - - - - - - - 1005.6 1005.6 -
17/09:00pm 20.9 - - - - - - - - - 1005.1 1005.1 -
17/08:30pm 21.3 - - - - - - - - - 1004.7 1004.7 -
17/08:00pm 21.5 - - - - - - - - - 1004.7 1004.7 -
17/07:30pm 21.7 - - - - - - - - - 1004.4 1004.4 -
17/07:00pm 21.1 - - - - - - - - - 1004.2 1004.2 -
17/06:30pm 21.4 - - - - - - - - - 1004.1 1004.1 -
17/06:00pm 21.2 - - - - - - - - - 1004.2 1004.2 -
17/05:30pm 22.1 - - - - - - - - - 1004.9 1004.9 -
17/05:00pm 21.7 - - - - - - - - - 1004.5 1004.5 -
17/04:30pm 23.4 - - - - - - - - - 1004.2 1004.2 -
17/04:00pm 22.2 - - - - - - - - - 1005.0 1005.0 -
17/03:30pm 22.0 - - - - - - - - - 1004.9 1004.9 -
17/03:00pm 22.4 - - - - - - - - - 1005.2 1005.2 -
17/02:30pm 22.2 - - - - - - - - - 1005.5 1005.5 -
17/02:00pm 22.2 - - - - - - - - - 1005.5 1005.5 -
17/01:30pm 20.7 - - - - - - - - - 1005.9 1005.9 -
17/01:00pm 20.2 - - - - - - - - - 1006.4 1006.4 -
17/12:30pm 20.0 - - - - - - - - - 1006.8 1006.8 -
17/12:00pm 19.9 - - - - - - - - - 1006.8 1006.8 -
17/11:30am 19.9 - - - - - - - - - 1007.2 1007.2 -
17/11:00am 19.6 - - - - - - - - - 1007.7 1007.7 -
17/10:30am 19.7 - - - - - - - - - 1008.3 1008.3 -
17/10:00am 19.4 - - - - - - - - - 1008.6 1008.6 -
17/09:30am 19.2 - - - - - - - - - 1009.1 1009.1 -
17/09:00am 19.8 - - - - - - - - - 1009.1 1009.1 -
17/08:30am 20.1 - - - - - - - - - 1008.9 1008.9 -
17/08:00am 20.3 - - - - - - - - - 1008.8 1008.8 -
17/07:30am 19.9 - - - - - - - - - 1008.5 1008.5 -
17/07:00am 18.4 - - - - - - - - - 1008.1 1008.1 -
17/06:30am 17.9 - - - - - - - - - 1008.6 1008.6 -
17/06:00am 18.3 - - - - - - - - - 1008.4 1008.4 -
17/05:30am 17.9 - - - - - - - - - 1008.2 1008.2 -
17/05:00am 18.2 - - - - - - - - - 1008.1 1008.1 -
17/04:30am 18.0 - - - - - - - - - 1007.7 1007.7 -
17/04:00am 17.7 - - - - - - - - - 1007.1 1007.1 -
17/03:30am 17.5 - - - - - - - - - 1007.3 1007.3 -
17/03:00am 17.5 - - - - - - - - - 1008.1 1008.1 -
17/02:30am 17.0 - - - - - - - - - 1008.0 1008.0 -
17/02:00am 17.4 - - - - - - - - - 1008.5 1008.5 -
17/01:30am 17.7 - - - - - - - - - 1009.2 1009.2 -
17/01:00am 18.1 - - - - - - - - - 1009.1 1009.1 -
17/12:30am 18.2 - - - - - - - - - 1009.2 1009.2 -
17/12:00am 18.2 - - - - - - - - - 1009.3 1009.3 -
 
Date/Time
EDT
Temp
°C
App
Temp
°C
Dew
Point
°C
Rel
Hum
%
Delta-T
°C
Wind Press
QNH
hPa
Press
MSL
hPa
Rain since
9am
mm
Dir  Spd
km/h
Gust
km/h
Spd
kts
Gust
kts
16/11:30pm 18.0 - - - - - - - - - 1010.3 1010.3 -
16/11:00pm 17.9 - - - - - - - - - 1010.4 1010.4 -
16/10:30pm 17.8 - - - - - - - - - 1011.1 1011.1 -
16/10:00pm 17.6 - - - - - - - - - 1011.1 1011.1 -
16/09:30pm 17.6 - - - - - - - - - 1010.8 1010.8 -
16/09:00pm 17.6 - - - - - - - - - 1010.8 1010.8 -
16/08:30pm 17.5 - - - - - - - - - 1011.4 1011.4 -
16/08:00pm 17.3 - - - - - - - - - 1011.2 1011.2 -
16/07:30pm 17.4 - - - - - - - - - 1012.2 1012.2 -
16/07:00pm 17.2 - - - - - - - - - 1011.8 1011.8 -
16/06:30pm 17.2 - - - - - - - - - 1012.0 1012.0 -
16/06:00pm 17.1 - - - - - - - - - 1012.0 1012.0 -
16/05:30pm 17.3 - - - - - - - - - 1012.2 1012.2 -
16/05:00pm 17.5 - - - - - - - - - 1011.9 1011.9 -
16/04:30pm 17.8 - - - - - - - - - 1011.6 1011.6 -
16/04:00pm 17.8 - - - - - - - - - 1011.7 1011.7 -
16/03:30pm 18.0 - - - - - - - - - 1011.5 1011.5 -
16/03:00pm 17.9 - - - - - - - - - 1011.6 1011.6 -
16/02:30pm 18.4 - - - - - - - - - 1011.5 1011.5 -
16/02:00pm 18.5 - - - - - - - - - 1011.5 1011.5 -
16/01:30pm 18.4 - - - - - - - - - 1011.6 1011.6 -
16/01:00pm 18.7 - - - - - - - - - 1011.6 1011.6 -
16/12:30pm 18.5 - - - - - - - - - 1011.8 1011.8 -
16/12:00pm 18.4 - - - - - - - - - 1011.8 1011.8 -
16/11:30am 18.1 - - - - - - - - - 1011.6 1011.6 -
16/11:00am 17.9 - - - - - - - - - 1011.2 1011.2 -
16/10:30am 17.6 - - - - - - - - - 1011.1 1011.1 -
16/10:00am 17.5 - - - - - - - - - 1010.8 1010.8 -
16/09:30am 17.3 - - - - - - - - - 1010.7 1010.7 -
16/09:00am 17.3 - - - - - - - - - 1010.5 1010.5 -
16/08:30am 17.1 - - - - - - - - - 1010.2 1010.2 -
16/08:00am 16.8 - - - - - - - - - 1009.9 1009.9 -
16/07:30am 16.3 - - - - - - - - - 1009.5 1009.5 -
16/07:00am 15.8 - - - - - - - - - 1009.1 1009.1 -
16/06:30am 15.9 - - - - - - - - - 1008.8 1008.8 -
16/06:00am 15.6 - - - - - - - - - 1008.5 1008.5 -
16/05:30am 15.4 - - - - - - - - - 1008.3 1008.3 -
16/05:00am 15.9 - - - - - - - - - 1008.1 1008.1 -
16/04:30am 16.3 - - - - - - - - - 1007.9 1007.9 -
16/04:00am 17.5 - - - - - - - - - 1007.6 1007.6 -
16/03:30am 18.1 - - - - - - - - - 1007.5 1007.5 -
16/03:00am 17.7 - - - - - - - - - 1007.4 1007.4 -
16/02:30am 18.0 - - - - - - - - - 1007.4 1007.4 -
16/02:00am 18.1 - - - - - - - - - 1007.2 1007.2 -
16/01:30am 18.4 - - - - - - - - - 1007.1 1007.1 -
16/01:00am 18.6 - - - - - - - - - 1006.9 1006.9 -
16/12:30am 19.3 - - - - - - - - - 1006.8 1006.8 -
16/12:00am 18.7 - - - - - - - - - 1006.6 1006.6 -
 
Date/Time
EDT
Temp
°C
App
Temp
°C
Dew
Point
°C
Rel
Hum
%
Delta-T
°C
Wind Press
QNH
hPa
Press
MSL
hPa
Rain since
9am
mm
Dir  Spd
km/h
Gust
km/h
Spd
kts
Gust
kts
15/11:30pm 19.0 - - - - - - - - - 1006.1 1006.1 -
15/11:00pm 19.0 - - - - - - - - - 1005.9 1005.9 -
15/10:30pm 19.2 - - - - - - - - - 1005.4 1005.4 -
15/10:00pm 19.3 - - - - - - - - - 1005.7 1005.7 -
15/09:30pm 19.3 - - - - - - - - - 1004.9 1004.9 -
15/09:00pm 19.4 - - - - - - - - - 1006.2 1006.2 -
15/08:30pm 19.7 - - - - - - - - - 1005.0 1005.0 -
15/08:00pm 19.6 - - - - - - - - - 1005.2 1005.2 -
15/07:30pm 20.1 - - - - - - - - - 1005.1 1005.1 -
15/07:00pm 20.5 - - - - - - - - - 1004.3 1004.3 -
15/06:30pm 21.3 - - - - - - - - - 1004.1 1004.1 -
15/06:00pm 22.0 - - - - - - - - - 1004.2 1004.2 -
15/05:30pm 21.7 - - - - - - - - - 1004.3 1004.3 -
15/05:00pm 22.5 - - - - - - - - - 1004.8 1004.8 -
15/04:30pm 22.3 - - - - - - - - - 1005.3 1005.3 -
15/04:00pm 24.2 - - - - - - - - - 1005.8 1005.8 -
15/03:30pm 23.9 - - - - - - - - - 1005.9 1005.9 -
15/03:00pm 21.7 - - - - - - - - - 1006.3 1006.3 -
15/02:30pm 22.1 - - - - - - - - - 1006.0 1006.0 -
15/02:00pm 21.4 - - - - - - - - - 1007.7 1007.7 -
15/01:30pm 20.9 - - - - - - - - - 1008.4 1008.4 -
15/01:00pm 21.5 - - - - - - - - - 1008.7 1008.7 -
15/12:30pm 21.9 - - - - - - - - - 1008.0 1008.0 -
15/12:00pm 22.4 - - - - - - - - - 1007.6 1007.6 -
15/11:30am 23.7 - - - - - - - - - 1007.9 1007.9 -
15/11:00am 23.7 - - - - - - - - - 1008.5 1008.5 -
15/10:30am 22.9 - - - - - - - - - 1009.0 1009.0 -
15/10:00am 21.7 - - - - - - - - - 1009.5 1009.5 -
15/09:30am 22.6 - - - - - - - - - 1009.5 1009.5 -
15/09:00am 21.3 - - - - - - - - - 1009.9 1009.9 -
15/08:30am 21.1 - - - - - - - - - 1010.2 1010.2 -
15/08:00am 19.5 - - - - - - - - - 1010.2 1010.2 -
15/07:30am 18.4 - - - - - - - - - 1010.2 1010.2 -
15/07:00am 17.4 - - - - - - - - - 1010.0 1010.0 -
15/06:30am 17.3 - - - - - - - - - 1010.0 1010.0 -
15/06:00am 17.3 - - - - - - - - - 1009.9 1009.9 -
15/05:30am 17.3 - - - - - - - - - 1009.8 1009.8 -
15/05:00am 17.3 - - - - - - - - - 1009.5 1009.5 -
15/04:30am 17.6 - - - - - - - - - 1009.6 1009.6 -
15/04:00am 17.7 - - - - - - - - - 1010.1 1010.1 -
15/03:30am 18.8 - - - - - - - - - 1010.5 1010.5 -
15/03:00am 19.1 - - - - - - - - - 1010.1 1010.1 -
15/02:30am 19.1 - - - - - - - - - 1010.7 1010.7 -
15/02:00am 19.3 - - - - - - - - - 1010.7 1010.7 -
15/01:30am 19.2 - - - - - - - - - 1010.9 1010.9 -
15/01:00am 19.4 - - - - - - - - - 1011.5 1011.5 -
15/12:30am 19.7 - - - - - - - - - 1011.7 1011.7 -
15/12:00am 19.8 - - - - - - - - - 1011.6 1011.6 -
 
Date/Time
EDT
Temp
°C
App
Temp
°C
Dew
Point
°C
Rel
Hum
%
Delta-T
°C
Wind Press
QNH
hPa
Press
MSL
hPa
Rain since
9am
mm
Dir  Spd
km/h
Gust
km/h
Spd
kts
Gust
kts
14/11:30pm 19.4 - - - - - - - - - 1012.3 1012.3 -
14/11:00pm 19.5 - - - - - - - - - 1013.4 1013.4 -

Other Formats:

Comma delimited format used in spreadsheet applications
http://www.bom.gov.au/fwo/IDT60801/IDT60801.95987.axf

JavaScript Object Notation format (JSON) in row-major order
http://www.bom.gov.au/fwo/IDT60801/IDT60801.95987.json